Language: 


Des rapports , des résumés tant et plus, au choix de chacun....


Données statistiques de la station
Quotidien Rapport Février 18, 2017 Unités:  Métrique    Anglais   les deux
« Précédent Jour
Suivant Jour »
Quotidien Hebdomadaire Mensuel Annuel Actuel
  Haut: Bas: Moyen:
Température: 12.6 °C 0.0 °C 5.9 °C
Pt de rosée: 11.0 °C 1.1 °C 4.9 °C
Humidité: 98 % 0 % 93 %
Vitesse du vent: 14.3 km/h 0.0 km/h 4.3 km/h
Rafales: 21.9 km/h - -
Vent:- - SSW
Pression: 1027.0 hPa 0.0 hPa -
Précipitation: 0.0 mm    
Historical Graphs
 
 
Données statistiques pour Février 18, 2017
Heure Température Point de rosée Pression Vent Vitesse du vent Refales Humidité Pluie (taux horaire)
00:04 6.0 °C 5.6 °C 1027.0 hPa Calm     97 % 0.0 mm
00:09 5.9 °C 5.4 °C 1027.0 hPa Calm     97 % 0.0 mm
00:14 5.8 °C 5.3 °C 1027.0 hPa Calm     97 % 0.0 mm
00:19 5.9 °C 5.4 °C 1027.0 hPa WSW 2.6 km/h 2.6 km/h 97 % 0.0 mm
00:24 5.8 °C 5.5 °C 1027.0 hPa Calm   2.6 km/h 98 % 0.0 mm
00:29 5.7 °C 5.4 °C 1027.0 hPa Calm   2.1 km/h 98 % 0.0 mm
00:34 5.7 °C 5.4 °C 1027.0 hPa WSW 2.6 km/h 3.2 km/h 98 % 0.0 mm
00:39 5.6 °C 5.3 °C 1027.0 hPa West 3.2 km/h 5.0 km/h 98 % 0.0 mm
00:44 5.7 °C 5.4 °C 1027.0 hPa West 4.3 km/h 5.0 km/h 98 % 0.0 mm
00:49 5.8 °C 5.5 °C 1027.0 hPa West 4.7 km/h 5.8 km/h 98 % 0.0 mm
00:54 5.9 °C 5.6 °C 1027.0 hPa West 4.0 km/h 5.8 km/h 98 % 0.0 mm
00:59 5.8 °C 5.5 °C 1027.0 hPa West 2.1 km/h 5.8 km/h 98 % 0.0 mm
01:04 5.7 °C 5.4 °C 1027.0 hPa West 5.5 km/h 6.4 km/h 98 % 0.0 mm
01:09 5.7 °C 5.4 °C 1027.0 hPa West 4.0 km/h 6.9 km/h 98 % 0.0 mm
01:15 5.6 °C 5.3 °C 1027.0 hPa West 6.1 km/h 6.9 km/h 98 % 0.0 mm
01:20 5.5 °C 5.2 °C 1027.0 hPa NNW 6.4 km/h 6.9 km/h 98 % 0.0 mm
01:25 5.4 °C 4.9 °C 1027.0 hPa West 5.8 km/h 6.9 km/h 97 % 0.0 mm
01:30 5.4 °C 5.1 °C 1027.0 hPa West 2.6 km/h 5.8 km/h 98 % 0.0 mm
01:35 5.2 °C 4.8 °C 1027.0 hPa West 1.4 km/h 5.8 km/h 97 % 0.0 mm
01:40 4.9 °C 4.4 °C 1027.0 hPa West 4.7 km/h 5.8 km/h 97 % 0.0 mm
01:45 4.8 °C 4.4 °C 1027.0 hPa West 6.9 km/h 10.5 km/h 97 % 0.0 mm
01:50 4.7 °C 4.3 °C 1027.0 hPa WSW 5.8 km/h 10.5 km/h 97 % 0.0 mm
01:55 4.6 °C 4.3 °C 1027.0 hPa West 4.7 km/h 9.0 km/h 98 % 0.0 mm
02:00 4.6 °C 4.3 °C 1027.0 hPa West 5.5 km/h 6.9 km/h 98 % 0.0 mm
02:05 4.5 °C 4.2 °C 1027.0 hPa West 2.6 km/h 6.8 km/h 98 % 0.0 mm
02:10 4.4 °C 4.1 °C 1027.0 hPa West 3.5 km/h 5.5 km/h 98 % 0.0 mm
02:15 4.3 °C 4.0 °C 1027.0 hPa West 1.4 km/h 5.0 km/h 98 % 0.0 mm
02:20 4.3 °C 4.0 °C 1027.0 hPa Calm   5.0 km/h 98 % 0.0 mm
02:25 4.2 °C 3.9 °C 1027.0 hPa Calm   2.6 km/h 98 % 0.0 mm
02:30 4.0 °C 3.7 °C 1027.0 hPa Calm   2.6 km/h 98 % 0.0 mm
02:35 3.9 °C 3.6 °C 1027.0 hPa Calm     98 % 0.0 mm
02:40 3.9 °C 3.6 °C 1027.0 hPa NE 5.8 km/h 5.8 km/h 98 % 0.0 mm
02:45 3.8 °C 3.6 °C 1027.0 hPa ENE 3.2 km/h 5.8 km/h 98 % 0.0 mm
02:50 3.7 °C 3.4 °C 1027.0 hPa NE 4.0 km/h 5.5 km/h 98 % 0.0 mm
02:55 3.6 °C 3.3 °C 1027.0 hPa ENE 1.4 km/h 5.0 km/h 98 % 0.0 mm
03:00 3.6 °C 3.2 °C 1027.0 hPa ENE 2.6 km/h 4.0 km/h 98 % 0.0 mm
03:06 0.0 °C 3.2 °C 0.0 hPa Calm   4.0 km/h 0 % 0.0 mm
03:11 3.4 °C 3.2 °C 1027.0 hPa Calm   2.6 km/h 98 % 0.0 mm
03:16 3.3 °C 3.1 °C 1027.0 hPa Calm     98 % 0.0 mm
03:21 3.2 °C 2.9 °C 1027.0 hPa Calm     98 % 0.0 mm
03:26 3.1 °C 2.8 °C 1026.0 hPa West 1.4 km/h 8.7 km/h 98 % 0.0 mm
03:31 2.9 °C 2.7 °C 1026.0 hPa WSW 4.3 km/h 8.7 km/h 98 % 0.0 mm
03:36 2.9 °C 2.7 °C 1026.0 hPa West 4.0 km/h 7.6 km/h 98 % 0.0 mm
03:41 2.8 °C 2.6 °C 1026.0 hPa West 4.3 km/h 5.5 km/h 98 % 0.0 mm
03:46 2.8 °C 2.6 °C 1026.0 hPa NW 2.1 km/h 5.8 km/h 98 % 0.0 mm
03:51 2.7 °C 2.4 °C 1026.0 hPa West 5.0 km/h 6.1 km/h 98 % 0.0 mm
03:56 2.7 °C 2.4 °C 1026.0 hPa WNW 5.5 km/h 6.9 km/h 98 % 0.0 mm
04:01 2.7 °C 2.4 °C 1026.0 hPa WSW 5.5 km/h 7.6 km/h 98 % 0.0 mm
04:06 2.7 °C 2.4 °C 1026.0 hPa West 6.9 km/h 9.0 km/h 98 % 0.0 mm
04:11 2.7 °C 2.4 °C 1026.0 hPa West 6.4 km/h 9.0 km/h 98 % 0.0 mm
04:16 2.7 °C 2.4 °C 1026.0 hPa West 4.7 km/h 7.9 km/h 98 % 0.0 mm
04:21 2.7 °C 2.4 °C 1026.0 hPa West 3.5 km/h 6.4 km/h 98 % 0.0 mm
04:26 2.7 °C 2.4 °C 1026.0 hPa West 3.5 km/h 6.1 km/h 98 % 0.0 mm
04:31 2.8 °C 2.6 °C 1026.0 hPa West 2.1 km/h 4.7 km/h 98 % 0.0 mm
04:37 2.9 °C 2.7 °C 1026.0 hPa Calm   3.2 km/h 98 % 0.0 mm
04:42 2.9 °C 2.7 °C 1026.0 hPa Calm     98 % 0.0 mm
04:47 2.9 °C 2.7 °C 1026.0 hPa Calm     98 % 0.0 mm
04:52 2.9 °C 2.7 °C 1026.0 hPa Calm     98 % 0.0 mm
04:57 3.1 °C 2.8 °C 1026.0 hPa Calm   4.0 km/h 98 % 0.0 mm
05:02 3.1 °C 2.8 °C 1026.0 hPa Calm   4.0 km/h 98 % 0.0 mm
05:07 3.2 °C 2.9 °C 1026.0 hPa West 5.0 km/h 5.0 km/h 98 % 0.0 mm
05:12 3.2 °C 2.9 °C 1026.0 hPa Calm   5.0 km/h 98 % 0.0 mm
05:17 3.3 °C 3.1 °C 1026.0 hPa Calm   5.0 km/h 98 % 0.0 mm
05:22 3.3 °C 3.1 °C 1026.0 hPa Calm   1.4 km/h 98 % 0.0 mm
05:27 3.4 °C 3.2 °C 1026.0 hPa Calm     98 % 0.0 mm
05:32 3.4 °C 3.2 °C 1026.0 hPa Calm     98 % 0.0 mm
05:37 3.4 °C 3.2 °C 1026.0 hPa Calm   2.6 km/h 98 % 0.0 mm
05:42 3.6 °C 3.2 °C 1026.0 hPa East 2.1 km/h 2.6 km/h 98 % 0.0 mm
05:47 3.6 °C 3.2 °C 1026.0 hPa Calm   2.1 km/h 98 % 0.0 mm
05:52 3.6 °C 3.2 °C 1026.0 hPa Calm   2.1 km/h 98 % 0.0 mm
05:57 3.4 °C 3.2 °C 1026.0 hPa Calm     98 % 0.0 mm
06:02 3.3 °C 3.1 °C 1026.0 hPa Calm     98 % 0.0 mm
06:07 3.1 °C 2.8 °C 1026.0 hPa East 3.2 km/h 3.2 km/h 98 % 0.0 mm
06:12 3.1 °C 2.8 °C 1026.0 hPa Calm   3.2 km/h 98 % 0.0 mm
06:17 2.9 °C 2.7 °C 1026.0 hPa Calm   2.6 km/h 98 % 0.0 mm
06:22 2.9 °C 2.7 °C 1026.0 hPa Calm     98 % 0.0 mm
06:27 2.8 °C 2.6 °C 1026.0 hPa Calm     98 % 0.0 mm
06:32 2.7 °C 2.4 °C 1026.0 hPa Calm   1.4 km/h 98 % 0.0 mm
06:37 2.6 °C 2.3 °C 1026.0 hPa West 6.9 km/h 6.9 km/h 98 % 0.0 mm
06:42 2.3 °C 2.1 °C 1026.0 hPa Calm   6.9 km/h 98 % 0.0 mm
06:47 2.3 °C 2.1 °C 1026.0 hPa Calm   5.5 km/h 98 % 0.0 mm
06:52 2.3 °C 1.9 °C 1024.9 hPa West 2.1 km/h 3.2 km/h 98 % 0.0 mm
06:57 2.3 °C 1.9 °C 1024.9 hPa Calm   4.0 km/h 98 % 0.0 mm
07:02 2.3 °C 1.9 °C 1024.9 hPa West 4.3 km/h 6.1 km/h 98 % 0.0 mm
07:07 2.1 °C 1.8 °C 1024.9 hPa West 5.5 km/h 7.6 km/h 98 % 0.0 mm
07:12 1.9 °C 1.7 °C 1024.9 hPa West 8.7 km/h 9.3 km/h 98 % 0.0 mm
07:17 1.8 °C 1.5 °C 1024.9 hPa West 6.4 km/h 9.7 km/h 98 % 0.0 mm
07:22 1.6 °C 1.3 °C 1024.9 hPa West 5.8 km/h 9.7 km/h 98 % 0.0 mm
07:27 1.4 °C 1.2 °C 1024.9 hPa West 5.8 km/h 7.9 km/h 98 % 0.0 mm
07:33 1.4 °C 1.1 °C 1024.9 hPa West 6.1 km/h 6.9 km/h 98 % 0.0 mm
07:37 1.4 °C 1.1 °C 1026.0 hPa West 5.8 km/h 6.9 km/h 98 % 0.0 mm
07:43 1.4 °C 1.1 °C 1026.0 hPa West 3.2 km/h 6.9 km/h 98 % 0.0 mm
07:48 1.4 °C 1.1 °C 1026.0 hPa West 5.5 km/h 5.8 km/h 98 % 0.0 mm
07:53 1.4 °C 1.1 °C 1026.0 hPa Calm   6.9 km/h 98 % 0.0 mm
07:58 1.4 °C 1.1 °C 1026.0 hPa Calm   6.9 km/h 98 % 0.0 mm
08:03 1.4 °C 1.1 °C 1026.0 hPa West 1.8 km/h 4.0 km/h 98 % 0.0 mm
08:08 1.4 °C 1.1 °C 1026.0 hPa Calm   4.3 km/h 98 % 0.0 mm
08:13 1.4 °C 1.2 °C 1026.0 hPa Calm   4.3 km/h 98 % 0.0 mm
08:18 1.4 °C 1.2 °C 1026.0 hPa Calm     98 % 0.0 mm
08:23 1.4 °C 1.2 °C 1026.0 hPa Calm   2.6 km/h 98 % 0.0 mm
08:28 1.6 °C 1.3 °C 1026.0 hPa West 2.6 km/h 4.0 km/h 98 % 0.0 mm
08:33 1.6 °C 1.3 °C 1026.0 hPa West 2.6 km/h 4.3 km/h 98 % 0.0 mm
08:38 1.6 °C 1.3 °C 1026.0 hPa Calm   4.3 km/h 98 % 0.0 mm
08:43 1.7 °C 1.4 °C 1026.0 hPa Calm     98 % 0.0 mm
08:48 1.7 °C 1.4 °C 1026.0 hPa Calm     98 % 0.0 mm
08:53 1.8 °C 1.5 °C 1026.0 hPa Calm     98 % 0.0 mm
08:58 1.9 °C 1.6 °C 1026.0 hPa Calm     98 % 0.0 mm
09:03 1.9 °C 1.7 °C 1026.0 hPa Calm     98 % 0.0 mm
09:08 2.1 °C 1.8 °C 1026.0 hPa East 1.4 km/h 1.4 km/h 98 % 0.0 mm
09:13 2.1 °C 1.8 °C 1026.0 hPa Calm   1.4 km/h 98 % 0.0 mm
09:18 2.3 °C 1.9 °C 1026.0 hPa Calm   2.6 km/h 98 % 0.0 mm
09:23 2.3 °C 2.1 °C 1026.0 hPa Calm   3.5 km/h 98 % 0.0 mm
09:28 2.6 °C 2.3 °C 1026.0 hPa Calm   3.5 km/h 98 % 0.0 mm
09:33 2.7 °C 2.4 °C 1026.0 hPa Calm   3.2 km/h 98 % 0.0 mm
09:38 2.8 °C 2.6 °C 1026.0 hPa Calm     98 % 0.0 mm
09:43 3.1 °C 2.8 °C 1026.0 hPa Calm     98 % 0.0 mm
09:48 3.1 °C 2.8 °C 1026.0 hPa Calm   1.8 km/h 98 % 0.0 mm
09:53 3.3 °C 3.1 °C 1026.0 hPa Calm   2.1 km/h 98 % 0.0 mm
09:58 3.4 °C 3.2 °C 1026.0 hPa Calm   2.1 km/h 98 % 0.0 mm
10:03 3.6 °C 3.2 °C 1026.0 hPa Calm     98 % 0.0 mm
10:08 3.7 °C 3.4 °C 1026.0 hPa Calm     98 % 0.0 mm
10:13 3.8 °C 3.6 °C 1026.0 hPa Calm     98 % 0.0 mm
10:18 3.9 °C 3.6 °C 1026.0 hPa Calm     98 % 0.0 mm
10:23 4.0 °C 3.7 °C 1026.0 hPa Calm     98 % 0.0 mm
10:28 4.1 °C 3.8 °C 1026.0 hPa Calm     98 % 0.0 mm
10:33 4.3 °C 4.0 °C 1026.0 hPa Calm     98 % 0.0 mm
10:38 4.5 °C 4.2 °C 1027.0 hPa Calm     98 % 0.0 mm
10:43 4.6 °C 4.3 °C 1027.0 hPa Calm     98 % 0.0 mm
10:48 4.8 °C 4.5 °C 1027.0 hPa Calm   3.5 km/h 98 % 0.0 mm
10:53 5.0 °C 4.7 °C 1027.0 hPa Calm   3.5 km/h 98 % 0.0 mm
10:58 5.2 °C 4.9 °C 1027.0 hPa Calm   2.6 km/h 98 % 0.0 mm
11:03 5.5 °C 5.2 °C 1027.0 hPa SE 5.0 km/h 5.8 km/h 98 % 0.0 mm
11:08 5.6 °C 5.3 °C 1027.0 hPa SSE 5.0 km/h 5.8 km/h 98 % 0.0 mm
11:13 5.7 °C 5.4 °C 1027.0 hPa Calm   5.0 km/h 98 % 0.0 mm
11:18 5.9 °C 5.6 °C 1027.0 hPa SSE 1.8 km/h 4.0 km/h 98 % 0.0 mm
11:23 6.0 °C 5.7 °C 1027.0 hPa South 1.4 km/h 5.0 km/h 98 % 0.0 mm
11:28 6.2 °C 5.9 °C 1027.0 hPa Calm   6.4 km/h 98 % 0.0 mm
11:33 6.4 °C 6.1 °C 1027.0 hPa South 3.2 km/h 6.9 km/h 98 % 0.0 mm
11:38 6.4 °C 6.1 °C 1027.0 hPa SSW 4.3 km/h 6.9 km/h 98 % 0.0 mm
11:43 6.7 °C 6.4 °C 1027.0 hPa Calm   5.8 km/h 98 % 0.0 mm
11:48 6.8 °C 6.6 °C 1027.0 hPa Calm   4.7 km/h 98 % 0.0 mm
11:53 7.1 °C 6.8 °C 1027.0 hPa SSW 2.6 km/h 6.1 km/h 98 % 0.0 mm
11:58 7.3 °C 6.9 °C 1027.0 hPa WSW 6.1 km/h 6.9 km/h 98 % 0.0 mm
12:03 7.3 °C 6.9 °C 1027.0 hPa SW 5.5 km/h 7.9 km/h 98 % 0.0 mm
12:08 7.4 °C 7.2 °C 1027.0 hPa South 6.9 km/h 7.9 km/h 98 % 0.0 mm
12:13 7.6 °C 7.3 °C 1027.0 hPa SSW 5.0 km/h 7.6 km/h 98 % 0.0 mm
12:18 7.7 °C 7.4 °C 1027.0 hPa SSW 4.7 km/h 9.0 km/h 98 % 0.0 mm
12:23 7.8 °C 7.6 °C 1027.0 hPa South 5.8 km/h 9.0 km/h 98 % 0.0 mm
12:29 8.1 °C 7.7 °C 1027.0 hPa WSW 6.4 km/h 7.6 km/h 98 % 0.0 mm
12:34 8.1 °C 7.8 °C 1027.0 hPa South 5.5 km/h 7.6 km/h 98 % 0.0 mm
12:39 8.3 °C 8.1 °C 1026.0 hPa SSW 8.7 km/h 9.0 km/h 98 % 0.0 mm
12:44 8.7 °C 8.4 °C 1026.0 hPa SSW 6.1 km/h 9.3 km/h 98 % 0.0 mm
12:49 8.5 °C 8.2 °C 1026.0 hPa SSW 5.8 km/h 9.3 km/h 98 % 0.0 mm
12:54 9.2 °C 8.9 °C 1026.0 hPa SW 7.6 km/h 9.0 km/h 98 % 0.0 mm
12:59 9.0 °C 8.7 °C 1026.0 hPa Calm   9.0 km/h 98 % 0.0 mm
13:04 9.4 °C 8.9 °C 1026.0 hPa SSW 5.0 km/h 8.7 km/h 97 % 0.0 mm
13:09 9.9 °C 9.4 °C 1026.0 hPa SSE 5.0 km/h 8.7 km/h 97 % 0.0 mm
13:14 9.9 °C 9.4 °C 1026.0 hPa Calm   8.7 km/h 97 % 0.0 mm
13:19 10.3 °C 9.7 °C 1026.0 hPa SSW 6.1 km/h 7.2 km/h 96 % 0.0 mm
13:24 10.5 °C 9.9 °C 1024.9 hPa Calm   7.9 km/h 96 % 0.0 mm
13:29 10.9 °C 10.1 °C 1024.9 hPa SSW 5.5 km/h 7.9 km/h 95 % 0.0 mm
13:34 11.1 °C 10.3 °C 1024.9 hPa Calm   7.9 km/h 95 % 0.0 mm
13:39 11.1 °C 10.3 °C 1024.9 hPa Calm   9.7 km/h 95 % 0.0 mm
13:44 11.3 °C 10.3 °C 1024.9 hPa SW 6.4 km/h 10.1 km/h 94 % 0.0 mm
13:49 11.6 °C 10.6 °C 1024.9 hPa SE 4.3 km/h 10.1 km/h 94 % 0.0 mm
13:54 11.8 °C 10.9 °C 1024.9 hPa South 9.7 km/h 12.2 km/h 94 % 0.0 mm
13:59 11.9 °C 11.0 °C 1024.9 hPa SSE 10.5 km/h 12.6 km/h 94 % 0.0 mm
14:04 12.1 °C 10.9 °C 1024.9 hPa SSW 8.7 km/h 14.0 km/h 93 % 0.0 mm
14:09 11.9 °C 10.7 °C 1024.9 hPa South 9.7 km/h 16.3 km/h 92 % 0.0 mm
14:14 12.1 °C 10.6 °C 1024.9 hPa SSE 14.0 km/h 16.3 km/h 91 % 0.0 mm
14:19 12.1 °C 10.3 °C 1024.9 hPa South 9.3 km/h 14.8 km/h 89 % 0.0 mm
14:24 12.2 °C 10.1 °C 1023.9 hPa SSE 11.9 km/h 17.2 km/h 87 % 0.0 mm
14:29 12.2 °C 9.9 °C 1023.9 hPa South 9.0 km/h 17.2 km/h 86 % 0.0 mm
14:34 12.2 °C 9.8 °C 1023.9 hPa SSE 13.7 km/h 16.6 km/h 85 % 0.0 mm
14:39 12.2 °C 9.6 °C 1023.9 hPa South 7.2 km/h 16.6 km/h 84 % 0.0 mm
14:44 12.2 °C 9.3 °C 1023.9 hPa South 11.6 km/h 21.9 km/h 82 % 0.0 mm
14:49 12.2 °C 9.3 °C 1023.9 hPa South 9.7 km/h 21.9 km/h 82 % 0.0 mm
14:59 12.3 °C 8.8 °C 1024.9 hPa SW 9.0 km/h 15.1 km/h 79 % 0.0 mm
15:04 12.4 °C 8.7 °C 1024.9 hPa SSW 9.0 km/h 13.0 km/h 78 % 0.0 mm
15:09 12.6 °C 8.8 °C 1024.9 hPa SSW 6.1 km/h 17.2 km/h 78 % 0.0 mm
15:14 12.4 °C 8.7 °C 1024.9 hPa South 9.3 km/h 17.2 km/h 78 % 0.0 mm
15:19 12.2 °C 8.3 °C 1024.9 hPa South 9.3 km/h 15.4 km/h 77 % 0.0 mm
15:24 12.1 °C 7.9 °C 1024.9 hPa South 9.3 km/h 15.8 km/h 76 % 0.0 mm
15:29 12.1 °C 7.9 °C 1024.9 hPa SSW 13.7 km/h 15.8 km/h 76 % 0.0 mm
15:34 12.2 °C 8.1 °C 1024.9 hPa SSE 9.3 km/h 17.2 km/h 76 % 0.0 mm
15:39 12.2 °C 8.2 °C 1024.9 hPa South 14.3 km/h 17.2 km/h 76 % 0.0 mm
15:44 12.2 °C 7.8 °C 1024.9 hPa SSE 8.7 km/h 16.9 km/h 75 % 0.0 mm
15:49 12.2 °C 8.1 °C 1024.9 hPa SSW 9.3 km/h 16.9 km/h 76 % 0.0 mm
15:54 12.1 °C 7.8 °C 1024.9 hPa SSE 9.0 km/h 13.7 km/h 75 % 0.0 mm
15:59 12.2 °C 7.8 °C 1024.9 hPa SSE 6.9 km/h 15.4 km/h 75 % 0.0 mm
16:04 12.2 °C 7.8 °C 1024.9 hPa South 9.7 km/h 15.4 km/h 75 % 0.0 mm
16:10 12.1 °C 7.8 °C 1024.9 hPa SSE 6.9 km/h 16.9 km/h 75 % 0.0 mm
16:15 11.9 °C 7.4 °C 1024.9 hPa South 12.2 km/h 16.9 km/h 74 % 0.0 mm
16:20 11.8 °C 7.3 °C 1024.9 hPa South 7.9 km/h 14.0 km/h 74 % 0.0 mm
16:25 11.7 °C 7.2 °C 1024.9 hPa South 8.7 km/h 16.9 km/h 74 % 0.0 mm
16:30 11.6 °C 7.3 °C 1024.9 hPa SSE 9.7 km/h 16.9 km/h 75 % 0.0 mm
16:35 11.6 °C 7.3 °C 1024.9 hPa SSW 5.0 km/h 12.6 km/h 75 % 0.0 mm
16:40 11.6 °C 7.3 °C 1023.9 hPa South 5.8 km/h 12.2 km/h 75 % 0.0 mm
16:45 11.4 °C 7.1 °C 1023.9 hPa South 5.5 km/h 12.2 km/h 75 % 0.0 mm
16:50 11.3 °C 7.0 °C 1023.9 hPa SSE 7.6 km/h 11.9 km/h 75 % 0.0 mm
16:55 11.1 °C 6.8 °C 1023.9 hPa SSE 5.8 km/h 12.6 km/h 75 % 0.0 mm
17:00 11.0 °C 6.7 °C 1023.9 hPa SSE 7.9 km/h 12.6 km/h 75 % 0.0 mm
17:05 10.9 °C 6.6 °C 1023.9 hPa South 7.9 km/h 13.7 km/h 75 % 0.0 mm
17:10 10.8 °C 6.5 °C 1023.9 hPa SSE 7.9 km/h 13.7 km/h 75 % 0.0 mm
17:15 10.7 °C 6.6 °C 1023.9 hPa South 6.9 km/h 12.2 km/h 76 % 0.0 mm
17:20 10.7 °C 6.8 °C 1023.9 hPa SSE 5.0 km/h 10.5 km/h 77 % 0.0 mm
17:25 10.5 °C 6.6 °C 1023.9 hPa South 4.7 km/h 9.0 km/h 77 % 0.0 mm
17:30 10.4 °C 6.5 °C 1023.9 hPa SSW 9.0 km/h 10.5 km/h 77 % 0.0 mm
17:35 10.3 °C 6.6 °C 1023.9 hPa South 4.7 km/h 10.5 km/h 78 % 0.0 mm
17:45 9.8 °C 6.2 °C 1023.9 hPa South 4.3 km/h 14.3 km/h 78 % 0.0 mm
17:50 9.5 °C 6.1 °C 1023.9 hPa SSE 7.2 km/h 9.7 km/h 79 % 0.0 mm
17:55 9.2 °C 5.8 °C 1024.9 hPa South 5.0 km/h 12.6 km/h 79 % 0.0 mm
17:56 9.2 °C 5.8 °C 1024.9 hPa South 5.5 km/h 12.6 km/h 79 % 0.0 mm
17:57 9.1 °C 5.8 °C 1024.9 hPa SSE 4.3 km/h 12.6 km/h 80 % 0.0 mm
17:58 9.1 °C 5.8 °C 1024.9 hPa SSW 6.4 km/h 12.6 km/h 80 % 0.0 mm
18:03 8.9 °C 5.8 °C 1024.9 hPa South 5.5 km/h 10.1 km/h 81 % 0.0 mm
18:08 8.6 °C 5.7 °C 1023.9 hPa South 8.7 km/h 10.5 km/h 82 % 0.0 mm
18:13 8.3 °C 5.4 °C 1023.9 hPa South 5.0 km/h 10.5 km/h 82 % 0.0 mm
18:18 8.2 °C 5.5 °C 1023.9 hPa SSE 5.0 km/h 9.0 km/h 83 % 0.0 mm
18:23 7.9 °C 5.2 °C 1024.9 hPa Calm   10.1 km/h 83 % 0.0 mm
18:28 7.7 °C 5.2 °C 1024.9 hPa SSE 6.9 km/h 10.1 km/h 84 % 0.0 mm
18:33 7.6 °C 5.2 °C 1024.9 hPa SSW 5.5 km/h 10.1 km/h 85 % 0.0 mm
18:38 7.4 °C 5.3 °C 1024.9 hPa SSE 6.1 km/h 10.1 km/h 86 % 0.0 mm
18:43 7.3 °C 5.1 °C 1024.9 hPa South 6.1 km/h 9.3 km/h 86 % 0.0 mm
18:48 7.2 °C 4.9 °C 1024.9 hPa South 7.9 km/h 9.3 km/h 86 % 0.0 mm
18:53 7.1 °C 5.1 °C 1024.9 hPa South 8.7 km/h 10.5 km/h 87 % 0.0 mm
18:58 6.9 °C 5.1 °C 1024.9 hPa South 5.8 km/h 10.5 km/h 88 % 0.0 mm
19:03 6.8 °C 5.0 °C 1024.9 hPa South 5.5 km/h 10.1 km/h 88 % 0.0 mm
19:08 6.8 °C 5.1 °C 1024.9 hPa South 10.1 km/h 10.5 km/h 89 % 0.0 mm
19:13 6.7 °C 5.2 °C 1024.9 hPa SSW 9.3 km/h 12.2 km/h 90 % 0.0 mm
19:18 6.7 °C 5.3 °C 1024.9 hPa SSW 9.0 km/h 12.2 km/h 91 % 0.0 mm
19:23 6.6 °C 5.2 °C 1024.9 hPa SSW 6.1 km/h 10.1 km/h 91 % 0.0 mm
19:28 6.4 °C 5.1 °C 1024.9 hPa SSW 5.5 km/h 9.3 km/h 91 % 0.0 mm
19:33 6.4 °C 5.2 °C 1024.9 hPa South 4.0 km/h 9.3 km/h 92 % 0.0 mm
19:38 6.3 °C 5.1 °C 1024.9 hPa SSW 5.5 km/h 9.0 km/h 92 % 0.0 mm
19:43 6.3 °C 5.2 °C 1024.9 hPa SSE 6.4 km/h 9.3 km/h 93 % 0.0 mm
19:48 6.1 °C 5.1 °C 1024.9 hPa SSW 5.8 km/h 9.3 km/h 93 % 0.0 mm
19:53 6.0 °C 4.9 °C 1024.9 hPa SSW 7.9 km/h 10.1 km/h 93 % 0.0 mm
19:58 5.9 °C 4.8 °C 1024.9 hPa South 6.1 km/h 10.1 km/h 93 % 0.0 mm
20:03 5.8 °C 4.9 °C 1024.9 hPa SSW 4.0 km/h 9.3 km/h 94 % 0.0 mm
20:08 5.7 °C 4.8 °C 1024.9 hPa SSW 4.0 km/h 8.7 km/h 94 % 0.0 mm
20:13 5.6 °C 4.7 °C 1024.9 hPa Calm   7.6 km/h 94 % 0.0 mm
20:18 5.4 °C 4.5 °C 1024.9 hPa South 4.3 km/h 6.9 km/h 94 % 0.0 mm
20:23 5.3 °C 4.4 °C 1024.9 hPa Calm   6.9 km/h 94 % 0.0 mm
20:28 5.2 °C 4.3 °C 1024.9 hPa Calm   5.0 km/h 94 % 0.0 mm
20:33 5.0 °C 4.1 °C 1024.9 hPa SW 4.0 km/h 5.8 km/h 94 % 0.0 mm
20:34 5.0 °C 4.1 °C 1024.9 hPa SSW 3.2 km/h 5.8 km/h 94 % 0.0 mm
20:39 4.9 °C 4.2 °C 1024.9 hPa Calm   6.4 km/h 95 % 0.0 mm
20:44 4.9 °C 4.2 °C 1024.9 hPa South 4.7 km/h 6.9 km/h 95 % 0.0 mm
20:45 4.9 °C 4.2 °C 1024.9 hPa South 4.7 km/h 6.9 km/h 95 % 0.0 mm
20:50 5.0 °C 4.3 °C 1024.9 hPa SSW 4.7 km/h 6.9 km/h 95 % 0.0 mm
20:55 5.1 °C 4.5 °C 1024.9 hPa SSW 9.7 km/h 10.1 km/h 96 % 0.0 mm
21:00 5.2 °C 4.6 °C 1024.9 hPa SSW 5.8 km/h 10.5 km/h 96 % 0.0 mm
21:05 5.2 °C 4.8 °C 1024.9 hPa South 6.9 km/h 10.5 km/h 97 % 0.0 mm
21:10 5.2 °C 4.8 °C 1024.9 hPa SSW 11.6 km/h 11.6 km/h 97 % 0.0 mm
21:15 5.2 °C 4.8 °C 1024.9 hPa South 8.7 km/h 11.6 km/h 97 % 0.0 mm
21:20 5.2 °C 4.8 °C 1024.9 hPa SSW 5.8 km/h 11.6 km/h 97 % 0.0 mm
21:25 5.2 °C 4.8 °C 1024.9 hPa WSW 5.8 km/h 9.7 km/h 97 % 0.0 mm
21:30 5.2 °C 4.8 °C 1024.9 hPa SSW 5.5 km/h 7.9 km/h 97 % 0.0 mm
21:35 5.2 °C 4.8 °C 1024.9 hPa SW 11.9 km/h 11.9 km/h 97 % 0.0 mm
21:40 5.1 °C 4.7 °C 1024.9 hPa SW 6.1 km/h 13.0 km/h 97 % 0.0 mm
21:45 5.0 °C 4.6 °C 1024.9 hPa SSW 11.6 km/h 13.0 km/h 97 % 0.0 mm
21:50 5.0 °C 4.6 °C 1024.9 hPa SSE 6.4 km/h 11.6 km/h 97 % 0.0 mm
21:51 5.0 °C 4.6 °C 1024.9 hPa South 5.0 km/h 11.6 km/h 97 % 0.0 mm
21:56 5.0 °C 4.7 °C 1024.9 hPa SSW 4.0 km/h 9.7 km/h 98 % 0.0 mm
22:01 4.9 °C 4.6 °C 1024.9 hPa SSW 4.7 km/h 9.3 km/h 98 % 0.0 mm
22:06 4.9 °C 4.6 °C 1024.9 hPa South 5.0 km/h 9.0 km/h 98 % 0.0 mm
22:11 4.9 °C 4.6 °C 1024.9 hPa SSW 6.1 km/h 7.9 km/h 98 % 0.0 mm
22:16 4.9 °C 4.6 °C 1024.9 hPa SSW 6.4 km/h 7.2 km/h 98 % 0.0 mm
22:21 4.9 °C 4.6 °C 1024.9 hPa SSW 5.0 km/h 9.7 km/h 98 % 0.0 mm
22:26 4.8 °C 4.5 °C 1024.9 hPa SSW 3.2 km/h 9.7 km/h 98 % 0.0 mm
22:31 4.8 °C 4.5 °C 1024.9 hPa SSW 4.0 km/h 6.9 km/h 98 % 0.0 mm
22:36 4.8 °C 4.5 °C 1024.9 hPa SW 5.8 km/h 6.1 km/h 98 % 0.0 mm
22:41 4.9 °C 4.6 °C 1024.9 hPa SSW 7.9 km/h 8.7 km/h 98 % 0.0 mm
22:46 4.8 °C 4.5 °C 1024.9 hPa South 6.9 km/h 13.7 km/h 98 % 0.0 mm
22:51 4.8 °C 4.5 °C 1024.9 hPa SSW 6.1 km/h 13.7 km/h 98 % 0.0 mm
22:56 4.8 °C 4.5 °C 1024.9 hPa SSW 9.3 km/h 9.7 km/h 98 % 0.0 mm
23:01 4.8 °C 4.5 °C 1024.9 hPa SW 7.9 km/h 12.6 km/h 98 % 0.0 mm
23:11 4.6 °C 4.3 °C 1024.9 hPa SSW 4.0 km/h 12.6 km/h 98 % 0.0 mm
23:16 4.6 °C 4.3 °C 1024.9 hPa SW 6.9 km/h 9.7 km/h 98 % 0.0 mm
23:21 4.6 °C 4.3 °C 1024.9 hPa SSW 10.1 km/h 10.5 km/h 98 % 0.0 mm
23:26 4.5 °C 4.2 °C 1024.9 hPa SSW 7.6 km/h 10.5 km/h 98 % 0.0 mm
23:31 4.5 °C 4.2 °C 1024.9 hPa SW 10.5 km/h 10.8 km/h 98 % 0.0 mm
23:36 4.5 °C 4.2 °C 1024.9 hPa SSW 6.9 km/h 10.8 km/h 98 % 0.0 mm
23:41 4.4 °C 4.1 °C 1024.9 hPa SW 7.6 km/h 11.9 km/h 98 % 0.0 mm
23:46 4.4 °C 4.1 °C 1024.9 hPa WSW 6.9 km/h 11.9 km/h 98 % 0.0 mm
23:51 4.4 °C 4.1 °C 1024.9 hPa SW 7.9 km/h 9.0 km/h 98 % 0.0 mm
23:56 4.4 °C 4.1 °C 1024.9 hPa SW 5.8 km/h 9.0 km/h 98 % 0.0 mm
Le Gheer Warneton
Courtoisie de Weather Underground - 2.25 mb

Mise a jour : 18/12/2017 04:16:12
Généré par Cumulus 1.9.4 (1099)